createdAt,value
2019-01-09T00:00:02.447Z,1016.48
2019-01-09T00:05:02.469Z,1016.4
2019-01-09T00:10:02.904Z,1016.33
2019-01-09T00:15:04.444Z,1016.24
2019-01-09T00:20:02.871Z,1016.28
2019-01-09T00:25:03.215Z,1016.11
2019-01-09T00:30:02.633Z,1016.21
2019-01-09T00:35:02.984Z,1016.21
2019-01-09T00:40:02.370Z,1016.19
2019-01-09T00:45:02.742Z,1016.15
2019-01-09T00:50:03.117Z,1016.15
2019-01-09T00:55:02.529Z,1016.15
2019-01-09T01:00:02.928Z,1016.13
2019-01-09T01:05:02.912Z,1016.15
2019-01-09T01:10:02.389Z,1016.21
2019-01-09T01:15:02.741Z,1016.28
2019-01-09T01:20:03.185Z,1016.32
2019-01-09T01:25:02.589Z,1016.41
2019-01-09T01:30:02.950Z,1016.41
2019-01-09T01:35:02.587Z,1016.44
2019-01-09T01:40:02.259Z,1016.38
2019-01-09T01:45:02.584Z,1016.54
2019-01-09T01:50:02.927Z,1016.62
2019-01-09T01:55:03.313Z,1016.57
2019-01-09T02:00:02.773Z,1016.78
2019-01-09T02:05:03.215Z,1016.83
2019-01-09T02:10:02.724Z,1016.93
2019-01-09T02:15:03.137Z,1017.08
2019-01-09T02:20:01.750Z,1017.14
2019-01-09T02:25:03.098Z,1016.88
2019-01-09T02:30:02.533Z,1016.99
2019-01-09T02:35:02.969Z,1017.04
2019-01-09T02:40:02.385Z,1017.1
2019-01-09T02:45:02.719Z,1017.02
2019-01-09T02:50:03.105Z,1017.08
2019-01-09T02:55:02.523Z,1016.93
2019-01-09T03:00:02.924Z,1017.03
2019-01-09T03:05:03.274Z,1017.04
2019-01-09T03:10:02.690Z,1016.98
2019-01-09T03:15:03.033Z,1017.01
2019-01-09T03:20:02.454Z,1016.98
2019-01-09T03:25:02.910Z,1016.98
2019-01-09T03:30:03.336Z,1017.05
2019-01-09T03:35:02.768Z,1017.01
2019-01-09T03:40:03.200Z,1017.01
2019-01-09T03:45:02.733Z,1017.03
2019-01-09T03:50:03.163Z,1017.08
2019-01-09T03:55:02.591Z,1017.04
2019-01-09T04:00:03.231Z,1017.01
2019-01-09T04:05:02.639Z,1017.08
2019-01-09T04:10:03.095Z,1017.01
2019-01-09T04:15:02.636Z,1017.1
2019-01-09T04:20:03.057Z,1017.13
2019-01-09T04:25:02.478Z,1017.13
2019-01-09T04:30:02.954Z,1017.11
2019-01-09T04:35:03.369Z,1017.08
2019-01-09T04:40:02.757Z,1017.14
2019-01-09T04:45:03.128Z,1017.1
2019-01-09T04:50:02.540Z,1017.13
2019-01-09T04:55:02.883Z,1017.13
2019-01-09T05:00:03.245Z,1017.13
2019-01-09T05:05:02.642Z,1017.2
2019-01-09T05:10:03.090Z,1017.19
2019-01-09T05:15:02.510Z,1017.2
2019-01-09T05:20:02.970Z,1017.14
2019-01-09T05:25:02.293Z,1017.16
2019-01-09T05:30:02.712Z,1017.16
2019-01-09T05:35:03.294Z,1017.3
2019-01-09T05:40:02.805Z,1017.38
2019-01-09T05:45:03.222Z,1017.26
2019-01-09T05:50:02.643Z,1017.27
2019-01-09T05:55:02.988Z,1017.26
2019-01-09T06:00:02.407Z,1017.19
2019-01-09T06:05:02.847Z,1017.32
2019-01-09T06:10:03.285Z,1017.3
2019-01-09T06:15:02.747Z,1017.22
2019-01-09T06:20:03.155Z,1017.24
2019-01-09T06:25:02.567Z,1017.2
2019-01-09T06:30:03.009Z,1017.3
2019-01-09T06:35:02.436Z,1017.21
2019-01-09T06:40:02.839Z,1017.42
2019-01-09T06:45:03.154Z,1017.47
2019-01-09T06:50:02.529Z,1017.54
2019-01-09T06:55:02.881Z,1017.59
2019-01-09T07:00:03.591Z,1017.61
2019-01-09T07:05:02.937Z,1017.67
2019-01-09T07:10:02.360Z,1017.6
2019-01-09T07:15:11.072Z,1017.79
2019-01-09T07:20:02.971Z,1017.73
2019-01-09T07:25:02.402Z,1017.83
2019-01-09T07:30:02.797Z,1017.98
2019-01-09T07:35:03.243Z,1017.99
2019-01-09T07:40:02.668Z,1018.05
2019-01-09T07:45:02.999Z,1018.12
2019-01-09T07:50:02.422Z,1018.11
2019-01-09T07:55:02.765Z,1018.28
2019-01-09T08:00:03.313Z,1018.22
2019-01-09T08:05:02.721Z,1018.38
2019-01-09T08:10:03.172Z,1018.37
2019-01-09T08:15:02.592Z,1018.43
2019-01-09T08:20:03.036Z,1018.48
2019-01-09T08:25:02.457Z,1018.65
2019-01-09T08:30:02.034Z,1018.74
2019-01-09T08:35:02.428Z,1018.78
2019-01-09T08:40:02.862Z,1018.82
2019-01-09T08:45:03.201Z,1018.87
2019-01-09T08:50:02.523Z,1018.86
2019-01-09T08:55:02.863Z,1018.88
2019-01-09T09:00:03.203Z,1019.01
2019-01-09T09:05:02.612Z,1018.97
2019-01-09T09:10:03.064Z,1019.01
2019-01-09T09:15:02.483Z,1019.09
2019-01-09T09:20:02.923Z,1019.05
2019-01-09T09:25:03.343Z,1019.03
2019-01-09T09:30:02.714Z,1019.01
2019-01-09T09:35:03.053Z,1019.24
2019-01-09T09:40:02.556Z,1019.19
2019-01-09T09:45:02.992Z,1019.23
2019-01-09T09:50:02.408Z,1019.33
2019-01-09T09:55:02.752Z,1019.42
2019-01-09T10:00:03.200Z,1019.46
2019-01-09T10:05:02.607Z,1019.47
2019-01-09T10:10:03.067Z,1019.55
2019-01-09T10:15:02.489Z,1019.51
2019-01-09T10:20:02.924Z,1019.61
2019-01-09T10:25:03.301Z,1019.7
2019-01-09T10:30:02.700Z,1019.72
2019-01-09T10:35:03.061Z,1019.75
2019-01-09T10:40:02.585Z,1019.77
2019-01-09T10:45:03.024Z,1019.72
2019-01-09T10:50:02.410Z,1019.76
2019-01-09T10:55:02.750Z,1019.72
2019-01-09T11:00:02.302Z,1019.67
2019-01-09T11:05:01.825Z,1019.71
2019-01-09T11:10:03.260Z,1019.62
2019-01-09T11:15:02.685Z,1019.61
2019-01-09T11:20:03.116Z,1019.61
2019-01-09T11:25:02.544Z,1019.57
2019-01-09T11:30:02.891Z,1019.61
2019-01-09T11:35:03.240Z,1019.54
2019-01-09T11:40:02.739Z,1019.45
2019-01-09T11:45:03.095Z,1019.47
2019-01-09T11:50:02.492Z,1019.47
2019-01-09T11:55:02.848Z,1019.48
2019-01-09T12:00:03.325Z,1019.47
2019-01-09T12:05:02.704Z,1019.55
2019-01-09T12:10:03.192Z,1019.55
2019-01-09T12:15:02.562Z,1019.47
2019-01-09T12:20:02.909Z,1019.4
2019-01-09T12:25:03.249Z,1019.45
2019-01-09T12:30:02.657Z,1019.41
2019-01-09T12:35:03.005Z,1019.45
2019-01-09T12:40:02.427Z,1019.47
2019-01-09T12:45:02.818Z,1019.53
2019-01-09T12:50:03.216Z,1019.47
2019-01-09T12:55:02.626Z,1019.49
2019-01-09T13:00:02.974Z,1019.77
2019-01-09T13:05:03.323Z,1019.64
2019-01-09T13:10:02.840Z,1019.82
2019-01-09T13:15:03.183Z,1019.8
2019-01-09T13:20:02.688Z,1020.06
2019-01-09T13:25:03.022Z,1019.91
2019-01-09T13:30:02.453Z,1019.98
2019-01-09T13:35:02.902Z,1020.0
2019-01-09T13:40:03.343Z,1019.94
2019-01-09T13:45:02.765Z,1019.98
2019-01-09T13:50:03.110Z,1020.0
2019-01-09T13:55:02.518Z,1020.03
2019-01-09T14:00:02.864Z,1020.02
2019-01-09T14:05:03.809Z,1020.16
2019-01-09T14:10:03.341Z,1020.16
2019-01-09T14:15:02.664Z,1020.25
2019-01-09T14:20:03.011Z,1020.23
2019-01-09T14:25:02.342Z,1020.26
2019-01-09T14:30:02.794Z,1020.32
2019-01-09T14:35:03.198Z,1020.32
2019-01-09T14:40:02.624Z,1020.45
2019-01-09T14:45:02.963Z,1020.55
2019-01-09T14:50:03.406Z,1020.67
2019-01-09T14:55:02.812Z,1020.86
2019-01-09T15:00:03.166Z,1020.7
2019-01-09T15:05:02.631Z,1020.81
2019-01-09T15:10:03.131Z,1020.75
2019-01-09T15:15:02.451Z,1020.94
2019-01-09T15:20:02.787Z,1021.0
2019-01-09T15:25:03.256Z,1021.06
2019-01-09T15:30:02.688Z,1021.02
2019-01-09T15:35:03.093Z,1020.95
2019-01-09T15:40:06.000Z,1021.03
2019-01-09T15:45:02.646Z,1021.06
2019-01-09T15:50:02.987Z,1021.06
2019-01-09T15:55:02.413Z,1021.14
2019-01-09T16:00:02.856Z,1021.1
2019-01-09T16:05:03.198Z,1021.27
2019-01-09T16:10:02.613Z,1021.4
2019-01-09T16:15:03.065Z,1021.43
2019-01-09T16:20:02.486Z,1021.53
2019-01-09T16:25:02.821Z,1021.58
2019-01-09T16:30:03.157Z,1021.58
2019-01-09T16:35:02.570Z,1021.62
2019-01-09T16:40:03.021Z,1021.63
2019-01-09T16:45:01.542Z,1021.72
2019-01-09T16:50:02.884Z,1021.75
2019-01-09T16:55:03.357Z,1021.7
2019-01-09T17:00:02.733Z,1021.71
2019-01-09T17:05:03.218Z,1021.73
2019-01-09T17:10:02.741Z,1021.83
2019-01-09T17:20:03.286Z,1021.92
2019-01-09T17:25:02.910Z,1021.89
2019-01-09T17:30:03.357Z,1021.95
2019-01-09T17:35:02.764Z,1022.07
2019-01-09T17:40:03.218Z,1022.1
2019-01-09T17:45:02.639Z,1022.23
2019-01-09T17:50:02.974Z,1022.29
2019-01-09T17:55:02.399Z,1022.37
2019-01-09T18:00:02.847Z,1022.43
2019-01-09T18:05:03.177Z,1022.51
2019-01-09T18:10:02.902Z,1022.54
2019-01-09T18:15:03.274Z,1022.64
2019-01-09T18:20:02.653Z,1022.68
2019-01-09T18:25:03.019Z,1022.66
2019-01-09T18:30:02.428Z,1022.71
2019-01-09T18:35:02.877Z,1022.78
2019-01-09T18:40:04.583Z,1022.82
2019-01-09T18:45:04.597Z,1022.91
2019-01-09T18:50:03.070Z,1022.89
2019-01-09T18:55:02.503Z,1022.99
2019-01-09T19:00:02.834Z,1023.04
2019-01-09T19:05:02.581Z,1023.13
2019-01-09T19:10:03.009Z,1023.18
2019-01-09T19:15:02.442Z,1023.2
2019-01-09T19:20:02.998Z,1023.17
2019-01-09T19:25:02.362Z,1023.22
2019-01-09T19:30:02.733Z,1023.24
2019-01-09T19:35:03.190Z,1023.22
2019-01-09T19:40:02.898Z,1023.23
2019-01-09T19:45:03.516Z,1023.34
2019-01-09T19:50:02.853Z,1023.43
2019-01-09T19:55:03.204Z,1023.37
2019-01-09T20:00:02.615Z,1023.45
2019-01-09T20:05:02.980Z,1023.47
2019-01-09T20:10:02.485Z,1023.52
2019-01-09T20:15:03.015Z,1023.53
2019-01-09T20:20:02.497Z,1023.56
2019-01-09T20:25:02.955Z,1023.55
2019-01-09T20:30:03.366Z,1023.68
2019-01-09T20:35:02.799Z,1023.77
2019-01-09T20:40:07.481Z,1023.92
2019-01-09T20:45:02.928Z,1024.01
2019-01-09T20:50:02.366Z,1024.13
2019-01-09T20:55:02.791Z,1024.13
2019-01-09T21:00:03.542Z,1024.15
2019-01-09T21:05:03.062Z,1024.19
2019-01-09T21:10:02.498Z,1024.27
2019-01-09T21:15:02.933Z,1024.28
2019-01-09T21:20:03.409Z,1024.27
2019-01-09T21:25:02.779Z,1024.37
2019-01-09T21:30:03.229Z,1024.4
2019-01-09T21:35:02.661Z,1024.43
2019-01-09T21:40:03.097Z,1024.46
2019-01-09T21:45:02.423Z,1024.58
2019-01-09T21:50:02.849Z,1024.63
2019-01-09T21:55:03.240Z,1024.68
2019-01-09T22:00:02.607Z,1024.69
2019-01-09T22:05:02.244Z,1024.78
2019-01-09T22:10:02.682Z,1024.83
2019-01-09T22:15:03.070Z,1024.82
2019-01-09T22:20:02.474Z,1024.86
2019-01-09T22:25:02.885Z,1024.85
2019-01-09T22:30:03.634Z,1024.86
2019-01-09T22:35:03.053Z,1024.88
2019-01-09T22:40:02.511Z,1024.86
2019-01-09T22:45:02.922Z,1024.83
2019-01-09T22:50:03.319Z,1024.83
2019-01-09T22:55:02.668Z,1024.83
2019-01-09T23:00:02.992Z,1024.86
2019-01-09T23:05:02.330Z,1024.83
2019-01-09T23:10:02.775Z,1024.85
2019-01-09T23:15:03.154Z,1024.74
2019-01-09T23:20:02.572Z,1024.77
2019-01-09T23:25:02.974Z,1024.85
2019-01-09T23:30:02.398Z,1024.86
2019-01-09T23:35:02.850Z,1024.92
2019-01-09T23:40:03.289Z,1024.99
2019-01-09T23:45:02.694Z,1025.05
2019-01-09T23:50:03.046Z,1025.05
2019-01-09T23:55:02.466Z,1025.03
